Time;durP1;ratioP1;P1;durP2;ratioP2;P2;SDS_P1;SDS_P2;PMS_P1;PMS_P2;Temp;Humidity;BMP_temperature;BMP_pressure;BME280_temperature;BME280_humidity;BME280_pressure;Samples;Min_cycle;Max_cycle;Signal;HPM_P1;HPM_P2
2022/06/21 00:01:19;;;;;;;3.40;1.10;;;;;;;12.78;100.00;96207.28;4991204;28;20116;-80
2022/06/21 00:03:47;;;;;;;3.27;1.20;;;;;;;12.90;100.00;96206.69;4978178;28;20084;-80
2022/06/21 00:06:17;;;;;;;3.03;1.00;;;;;;;12.99;100.00;96199.56;4990257;28;20042;-80
2022/06/21 00:08:43;;;;;;;3.47;1.40;;;;;;;13.01;100.00;96194.09;4990909;28;20038;-79
2022/06/21 00:11:24;;;;;;;6.13;1.70;;;;;;;12.89;100.00;96202.41;4975906;28;20030;-80
2022/06/21 00:13:50;;;;;;;3.30;1.20;;;;;;;12.86;100.00;96202.78;4979808;28;20040;-80
2022/06/21 00:16:16;;;;;;;3.37;1.40;;;;;;;12.96;100.00;96208.66;4997619;28;20117;-80
2022/06/21 00:18:45;;;;;;;2.53;1.20;;;;;;;13.01;100.00;96209.94;4978974;28;20033;-80
2022/06/21 00:21:15;;;;;;;3.03;1.67;;;;;;;12.95;100.00;96196.44;4993223;28;20513;-79
2022/06/21 00:23:41;;;;;;;2.27;1.30;;;;;;;12.90;100.00;96196.13;4988109;28;20437;-80
2022/06/21 00:26:11;;;;;;;3.23;1.13;;;;;;;12.86;100.00;96200.13;4992367;28;20118;-79
2022/06/21 00:28:36;;;;;;;3.10;1.80;;;;;;;12.50;100.00;96199.81;4994789;28;20018;-79
2022/06/21 00:31:02;;;;;;;3.07;1.73;;;;;;;12.64;100.00;96199.13;4996269;28;20511;-79
2022/06/21 00:33:29;;;;;;;3.97;1.63;;;;;;;12.54;100.00;96201.16;4995941;28;20049;-80
2022/06/21 00:35:59;;;;;;;2.67;1.50;;;;;;;12.38;100.00;96202.03;4979617;28;20035;-79
2022/06/21 00:38:33;;;;;;;6.77;1.67;;;;;;;12.44;100.00;96206.63;4982033;28;20026;-78
2022/06/21 00:40:59;;;;;;;;;;;;;;;12.45;100.00;96202.97;5009444;28;20126;-79
2022/06/21 00:43:30;;;;;;;3.60;1.20;;;;;;;12.34;100.00;96208.63;5008144;28;19909;-80
2022/06/21 00:45:56;;;;;;;3.10;1.50;;;;;;;12.41;100.00;96201.69;4981960;28;20014;-79
2022/06/21 00:48:33;;;;;;;2.33;1.10;;;;;;;12.33;100.00;96195.63;4996723;28;20034;-80
2022/06/21 00:51:11;;;;;;;2.90;1.20;;;;;;;12.34;100.00;96194.59;4978153;28;20061;-79
2022/06/21 00:53:42;;;;;;;3.57;1.40;;;;;;;12.21;100.00;96195.19;4996393;28;20049;-79
2022/06/21 00:56:47;;;;;;;3.17;1.37;;;;;;;12.10;100.00;96198.16;4998142;28;20034;-80
2022/06/21 00:59:25;;;;;;;3.13;1.47;;;;;;;11.99;100.00;96187.00;5005863;28;20066;-80
2022/06/21 01:01:55;;;;;;;4.20;1.97;;;;;;;11.76;100.00;96192.09;4991737;28;20061;-79
2022/06/21 01:04:33;;;;;;;2.20;1.20;;;;;;;11.76;100.00;96201.81;4994930;28;20507;-79
2022/06/21 01:07:01;;;;;;;3.90;1.40;;;;;;;11.85;100.00;96198.22;4976513;28;20123;-78
2022/06/21 01:09:59;;;;;;;2.77;1.30;;;;;;;11.99;100.00;96192.25;4995912;28;20030;-80
2022/06/21 01:12:37;;;;;;;3.93;1.57;;;;;;;12.07;100.00;96187.94;4993137;28;20034;-80
2022/06/21 01:15:10;;;;;;;4.90;1.67;;;;;;;12.01;100.00;96189.47;4992433;28;20035;-80
2022/06/21 01:17:37;;;;;;;1.92;1.58;;;;;;;11.96;100.00;96179.41;5000891;28;20037;-79
2022/06/21 01:20:14;;;;;;;3.90;1.60;;;;;;;12.01;100.00;96176.28;5007847;28;20062;-79
2022/06/21 01:23:07;;;;;;;3.07;1.50;;;;;;;11.97;100.00;96172.31;4996515;28;20036;-79
2022/06/21 01:25:54;;;;;;;5.67;1.70;;;;;;;11.84;100.00;96180.78;4995998;28;20392;-79
2022/06/21 01:28:19;;;;;;;3.23;1.53;;;;;;;11.77;100.00;96182.41;4978294;28;20039;-80
2022/06/21 01:30:51;;;;;;;6.47;1.80;;;;;;;11.70;100.00;96182.25;4978726;28;20052;-80
2022/06/21 01:33:26;;;;;;;3.53;1.57;;;;;;;11.62;100.00;96174.34;4996702;28;20041;-79
2022/06/21 01:35:55;;;;;;;3.40;1.80;;;;;;;11.55;100.00;96166.31;4978780;28;20041;-80
2022/06/21 01:38:38;;;;;;;5.00;1.90;;;;;;;11.68;100.00;96171.06;4995475;28;20037;-79
2022/06/21 01:41:08;;;;;;;3.22;1.80;;;;;;;11.70;100.00;96173.50;4992031;28;20496;-80
2022/06/21 01:43:38;;;;;;;2.97;1.87;;;;;;;11.69;100.00;96164.78;4994355;28;20056;-80
2022/06/21 01:46:09;;;;;;;2.53;1.60;;;;;;;11.34;100.00;96163.38;4991595;28;20034;-79
2022/06/21 01:48:42;;;;;;;2.67;1.50;;;;;;;11.36;100.00;96153.47;4980212;28;20038;-79
2022/06/21 01:51:13;;;;;;;2.78;1.58;;;;;;;11.42;100.00;96167.81;4993275;28;20093;-80
2022/06/21 01:53:40;;;;;;;4.80;1.60;;;;;;;11.30;100.00;96160.25;4977418;28;20619;-80
2022/06/21 01:56:21;;;;;;;4.67;1.73;;;;;;;11.25;100.00;96167.81;4978382;28;20435;-79
2022/06/21 01:59:05;;;;;;;5.33;2.00;;;;;;;11.22;100.00;96175.22;4995377;28;20042;-80
2022/06/21 02:01:43;;;;;;;4.63;1.90;;;;;;;11.06;100.00;96168.94;4992869;28;20034;-80
2022/06/21 02:04:10;;;;;;;2.87;1.50;;;;;;;11.12;100.00;96172.75;4993168;28;20026;-79
2022/06/21 02:06:41;;;;;;;3.30;1.60;;;;;;;11.16;100.00;96155.63;4992587;28;20396;-79
2022/06/21 02:09:16;;;;;;;5.10;1.53;;;;;;;11.03;100.00;96161.41;4994654;28;20041;-80
2022/06/21 02:11:52;;;;;;;3.60;1.73;;;;;;;10.98;100.00;96145.28;4979117;28;20038;-80
2022/06/21 02:14:29;;;;;;;6.37;1.97;;;;;;;11.00;100.00;96138.03;4995064;28;20034;-78
2022/06/21 02:17:23;;;;;;;4.10;2.10;;;;;;;11.00;100.00;96137.19;4991581;28;20165;-80
2022/06/21 02:19:53;;;;;;;4.93;2.13;;;;;;;10.97;100.00;96133.09;4991613;28;20488;-80
2022/06/21 02:22:22;;;;;;;3.07;1.83;;;;;;;10.95;100.00;96124.53;4992825;28;20049;-80
2022/06/21 02:24:50;;;;;;;4.33;1.93;;;;;;;11.18;100.00;96127.34;4977947;28;20053;-79
2022/06/21 02:27:18;;;;;;;4.27;2.07;;;;;;;11.06;100.00;96118.94;4992500;28;20510;-79
2022/06/21 02:29:50;;;;;;;5.77;2.00;;;;;;;11.01;100.00;96108.09;4993976;28;20038;-79
2022/06/21 02:32:38;;;;;;;3.20;1.40;;;;;;;11.09;100.00;96105.47;4994061;28;20032;-79
2022/06/21 02:35:19;;;;;;;2.93;1.77;;;;;;;11.22;100.00;96107.59;4991358;28;20039;-79
2022/06/21 02:37:48;;;;;;;3.03;1.90;;;;;;;11.00;100.00;96101.22;4993750;28;20089;-80
2022/06/21 02:40:45;;;;;;;4.27;1.90;;;;;;;11.20;100.00;96106.94;4996861;28;20030;-78
2022/06/21 02:43:18;;;;;;;4.50;1.80;;;;;;;11.22;100.00;96109.41;4986315;28;20046;-78
2022/06/21 02:46:01;;;;;;;4.05;2.00;;;;;;;10.90;100.00;96102.34;5000572;28;20034;-80
2022/06/21 02:48:33;;;;;;;3.83;1.83;;;;;;;11.00;100.00;96106.47;4987837;28;20042;-79
2022/06/21 02:51:05;;;;;;;3.90;2.20;;;;;;;10.96;100.00;96120.91;4967834;28;20130;-80
2022/06/21 02:53:36;;;;;;;4.33;2.03;;;;;;;11.09;100.00;96123.88;4987338;28;20117;-80
2022/06/21 02:56:25;;;;;;;5.43;2.27;;;;;;;10.99;100.00;96122.41;4974367;28;20110;-80
2022/06/21 02:58:56;;;;;;;3.00;1.80;;;;;;;11.03;100.00;96128.97;4990698;28;20034;-79
2022/06/21 03:01:28;;;;;;;4.87;2.07;;;;;;;10.91;100.00;96123.22;4990130;28;20085;-79
2022/06/21 03:03:56;;;;;;;4.43;2.67;;;;;;;10.73;100.00;96125.19;4988025;28;20038;-80
2022/06/21 03:06:23;;;;;;;7.17;1.80;;;;;;;10.67;100.00;96126.66;4989165;28;20464;-80
2022/06/21 03:09:07;;;;;;;2.63;1.70;;;;;;;10.62;100.00;96127.13;4990022;28;20502;-79
2022/06/21 03:11:43;;;;;;;4.33;2.10;;;;;;;10.59;100.00;96118.75;4989554;28;20460;-80
2022/06/21 03:14:15;;;;;;;2.93;1.90;;;;;;;10.50;100.00;96120.56;4972626;28;20031;-79
2022/06/21 03:16:43;;;;;;;3.87;2.20;;;;;;;10.62;100.00;96119.25;4989077;28;20042;-79
2022/06/21 03:19:40;;;;;;;6.13;2.20;;;;;;;10.73;100.00;96115.50;4985815;28;20026;-80
2022/06/21 03:22:29;;;;;;;17.30;10.40;;;;;;;10.51;100.00;96106.41;4991498;28;20030;-79
2022/06/21 03:24:59;;;;;;;11.13;7.87;;;;;;;10.35;100.00;96091.44;4987430;28;20033;-79
2022/06/21 03:27:31;;;;;;;7.90;4.93;;;;;;;10.41;100.00;96100.50;4987545;28;20042;-79
2022/06/21 03:29:57;;;;;;;7.27;2.27;;;;;;;10.44;100.00;96101.97;4988807;28;20045;-79
2022/06/21 03:32:24;;;;;;;4.13;2.10;;;;;;;10.47;100.00;96113.00;4989206;28;20484;-79
2022/06/21 03:34:50;;;;;;;4.13;1.73;;;;;;;10.43;100.00;96118.72;4989340;28;20034;-80
2022/06/21 03:37:18;;;;;;;2.97;1.67;;;;;;;10.36;100.00;96106.25;4973252;28;20030;-80
2022/06/21 03:42:36;;;;;;;3.80;1.80;;;;;;;10.62;100.00;96111.34;4986827;28;20116;-79
2022/06/21 03:45:09;;;;;;;3.13;1.90;;;;;;;10.54;100.00;96114.00;4976654;28;20432;-80
2022/06/21 03:47:45;;;;;;;4.88;2.30;;;;;;;10.44;100.00;96102.78;4990921;28;20066;-80
2022/06/21 03:50:19;;;;;;;9.33;3.77;;;;;;;10.58;100.00;96091.63;4992248;28;20044;-80
2022/06/21 03:53:03;;;;;;;4.40;1.97;;;;;;;10.52;100.00;96102.78;4973404;28;20038;-80
2022/06/21 03:55:58;;;;;;;3.90;2.07;;;;;;;10.74;100.00;96095.28;4990009;28;20102;-80
2022/06/21 03:58:37;;;;;;;3.10;1.93;;;;;;;10.85;100.00;96084.44;4988878;28;20460;-80
2022/06/21 04:01:27;;;;;;;3.77;2.07;;;;;;;10.69;100.00;96079.16;4987653;28;20078;-81
2022/06/21 04:04:00;;;;;;;6.73;2.90;;;;;;;10.80;100.00;96071.78;4986949;28;20125;-80
2022/06/21 04:06:37;;;;;;;3.63;2.00;;;;;;;10.59;100.00;96072.25;4994246;28;20030;-79
2022/06/21 04:09:25;;;;;;;5.00;2.47;;;;;;;10.45;100.00;96074.69;4988439;28;20029;-79
2022/06/21 04:12:13;;;;;;;4.23;2.57;;;;;;;10.61;100.00;96070.28;4988106;28;20098;-79
2022/06/21 04:14:47;;;;;;;7.17;2.63;;;;;;;10.71;100.00;96069.31;5005510;28;20065;-80
2022/06/21 04:17:45;;;;;;;5.67;2.43;;;;;;;10.97;100.00;96074.41;4990141;28;20455;-80
2022/06/21 04:20:22;;;;;;;6.40;2.40;;;;;;;11.02;100.00;96075.53;4988623;28;20038;-79
2022/06/21 04:23:23;;;;;;;6.70;2.60;;;;;;;10.79;100.00;96072.75;4994550;28;20121;-79
2022/06/21 04:26:00;;;;;;;7.20;2.60;;;;;;;10.99;100.00;96082.94;4997643;28;20109;-79
2022/06/21 04:28:36;;;;;;;5.27;2.63;;;;;;;11.11;100.00;96084.25;4987841;28;20034;-80
2022/06/21 04:31:15;;;;;;;8.03;2.73;;;;;;;11.25;100.00;96077.50;4985484;28;20484;-79
2022/06/21 04:33:52;;;;;;;7.90;2.50;;;;;;;11.39;100.00;96084.69;4987392;28;20026;-80
2022/06/21 04:36:26;;;;;;;5.97;2.40;;;;;;;11.46;100.00;96080.41;4987399;28;20038;-79
2022/06/21 04:38:56;;;;;;;13.37;2.60;;;;;;;11.54;100.00;96080.38;4986151;28;20630;-80
2022/06/21 04:41:49;;;;;;;7.47;2.50;;;;;;;11.62;100.00;96074.28;4988946;28;20093;-80
2022/06/21 04:44:15;;;;;;;;;;;;;;;11.78;100.00;96074.22;4992442;28;20472;-79
2022/06/21 04:46:53;;;;;;;4.33;2.10;;;;;;;11.91;100.00;96081.63;4989444;28;19910;-80
2022/06/21 04:49:40;;;;;;;3.40;1.80;;;;;;;11.96;100.00;96075.81;5000489;28;20030;-79
2022/06/21 04:52:15;;;;;;;4.97;1.90;;;;;;;12.18;100.00;96082.16;4972251;28;20042;-80
2022/06/21 04:54:41;;;;;;;7.50;2.40;;;;;;;12.29;100.00;96087.03;4990207;28;20031;-80
2022/06/21 04:57:20;;;;;;;6.07;2.80;;;;;;;12.44;100.00;96084.44;4989246;28;20045;-80
2022/06/21 04:59:54;;;;;;;12.90;6.10;;;;;;;12.63;100.00;96073.44;4994154;28;20061;-78
2022/06/21 05:02:29;;;;;;;6.83;2.97;;;;;;;12.95;100.00;96075.03;4993886;28;20030;-82
2022/06/21 05:05:00;;;;;;;6.77;2.40;;;;;;;13.09;100.00;96067.31;4993962;28;20038;-79
2022/06/21 05:07:31;;;;;;;3.87;2.30;;;;;;;13.24;100.00;96075.25;5010996;28;20038;-80
2022/06/21 05:09:58;;;;;;;7.30;2.30;;;;;;;13.27;100.00;96077.59;4994201;28;20026;-81
2022/06/21 05:12:33;;;;;;;6.27;2.20;;;;;;;13.53;100.00;96077.16;4989469;28;20116;-79
2022/06/21 05:15:04;;;;;;;5.97;2.20;;;;;;;13.54;100.00;96070.88;4992227;28;20121;-79
2022/06/21 05:17:38;;;;;;;4.30;2.10;;;;;;;13.89;100.00;96067.50;4991936;28;20061;-78
2022/06/21 05:20:11;;;;;;;3.90;1.90;;;;;;;13.81;100.00;96072.88;5007881;28;20030;-79
2022/06/21 05:22:42;;;;;;;;;;;;;;;14.10;100.00;96066.72;5002592;28;20041;-79
2022/06/21 05:25:39;;;;;;;5.93;2.10;;;;;;;14.12;100.00;96062.09;5016286;28;19961;-79
2022/06/21 05:28:27;;;;;;;5.60;2.43;;;;;;;14.54;100.00;96081.69;4994512;28;20046;-80
2022/06/21 05:31:17;;;;;;;6.73;2.67;;;;;;;14.59;100.00;96070.56;4996802;28;20431;-78
2022/06/21 05:34:00;;;;;;;6.40;2.10;;;;;;;14.63;96.99;96071.84;4991812;28;20106;-79
2022/06/21 05:36:34;;;;;;;4.45;2.20;;;;;;;14.91;90.97;96079.81;4992247;28;20038;-78
2022/06/21 05:39:07;;;;;;;6.80;2.20;;;;;;;15.26;88.85;96078.09;4992918;28;20129;-80
2022/06/21 05:41:44;;;;;;;6.28;2.40;;;;;;;15.48;89.53;96067.44;4984246;28;20042;-80
2022/06/21 05:44:16;;;;;;;6.40;1.90;;;;;;;15.50;92.00;96070.72;4990409;28;20030;-79
2022/06/21 05:46:49;;;;;;;6.18;2.10;;;;;;;15.57;88.85;96071.59;5001342;28;20026;-80
2022/06/21 05:49:30;;;;;;;4.23;2.07;;;;;;;15.57;88.70;96063.63;4982133;28;20038;-80
2022/06/21 05:52:00;;;;;;;6.53;2.50;;;;;;;15.90;89.35;96071.00;4999055;28;20073;-80
2022/06/21 05:54:58;;;;;;;4.40;1.83;;;;;;;16.21;89.60;96060.72;4989832;28;20031;-79
2022/06/21 05:57:26;;;;;;;7.20;2.30;;;;;;;16.25;83.63;96059.28;4992076;28;20058;-80
2022/06/21 05:59:52;;;;;;;4.82;1.92;;;;;;;16.67;85.55;96064.53;4994137;28;20515;-80
2022/06/21 06:02:40;;;;;;;6.03;1.90;;;;;;;16.94;80.99;96066.22;4994219;28;20026;-79
2022/06/21 06:05:28;;;;;;;4.38;2.03;;;;;;;17.14;77.83;96066.22;4974292;28;20631;-79
2022/06/21 06:07:59;;;;;;;6.85;2.58;;;;;;;17.07;67.00;96068.06;4990810;28;20034;-78
2022/06/21 06:10:26;;;;;;;7.22;2.08;;;;;;;16.47;67.21;96059.16;4994802;28;20038;-80
2022/06/21 06:13:00;;;;;;;3.42;1.85;;;;;;;16.69;63.13;96062.47;4989117;28;21422;-80
2022/06/21 06:15:39;;;;;;;5.40;1.52;;;;;;;17.01;61.32;96066.22;5005453;28;20109;-77
2022/06/21 06:18:17;;;;;;;5.38;1.80;;;;;;;16.70;64.76;96064.13;4990260;28;20073;-77
2022/06/21 06:21:00;;;;;;;5.82;1.70;;;;;;;16.83;61.66;96050.88;4989874;28;20034;-78
2022/06/21 06:23:37;;;;;;;4.72;1.73;;;;;;;17.17;60.23;96049.88;4989822;28;20044;-78
2022/06/21 06:26:15;;;;;;;5.18;2.10;;;;;;;17.16;60.91;96055.38;4990635;28;20030;-78
2022/06/21 06:29:12;;;;;;;7.18;1.80;;;;;;;16.95;60.26;96056.41;4989517;28;20117;-78
2022/06/21 06:31:42;;;;;;;6.82;2.05;;;;;;;17.11;59.91;96065.81;4981957;28;20037;-78
2022/06/21 06:34:14;;;;;;;6.93;2.03;;;;;;;17.59;58.92;96062.91;4985887;28;20129;-77
2022/06/21 06:36:50;;;;;;;4.30;1.85;;;;;;;17.70;58.43;96066.78;4986896;28;21321;-78
2022/06/21 06:39:18;;;;;;;6.35;1.90;;;;;;;17.87;56.76;96075.97;4988697;28;20034;-78
2022/06/21 06:42:03;;;;;;;5.90;1.58;;;;;;;18.17;54.42;96055.00;4986631;28;20661;-78
2022/06/21 06:44:36;;;;;;;4.95;1.77;;;;;;;17.73;55.75;96061.84;4995372;28;20039;-78
2022/06/21 06:47:02;;;;;;;3.35;1.40;;;;;;;18.04;54.67;96071.00;4987040;28;20042;-78
2022/06/21 06:49:34;;;;;;;7.70;2.35;;;;;;;18.05;54.25;96068.16;4986577;28;20049;-78
2022/06/21 06:52:03;;;;;;;4.97;1.75;;;;;;;18.35;51.84;96067.63;4987092;28;20181;-78
2022/06/21 06:54:36;;;;;;;6.53;2.03;;;;;;;18.14;54.23;96076.72;4987016;28;20031;-78
2022/06/21 06:57:02;;;;;;;;;;;;;;;18.13;52.99;96091.88;4981229;28;20519;-77
2022/06/21 06:59:28;;;;;;;6.30;1.70;;;;;;;18.24;51.94;96086.91;4985128;28;19917;-78
2022/06/21 07:02:21;;;;;;;6.72;2.30;;;;;;;18.75;49.96;96083.44;4987902;28;20030;-77
2022/06/21 07:04:56;;;;;;;5.63;1.80;;;;;;;19.15;50.63;96073.31;4969840;28;20038;-78
2022/06/21 07:07:32;;;;;;;6.18;1.83;;;;;;;18.63;51.44;96080.59;4987909;28;20038;-78
2022/06/21 07:10:05;;;;;;;3.47;1.77;;;;;;;19.19;50.28;96068.38;4988732;28;20042;-78
2022/06/21 07:12:31;;;;;;;4.10;1.50;;;;;;;18.56;49.70;96069.97;4983757;28;20045;-77
2022/06/21 07:14:58;;;;;;;10.55;1.95;;;;;;;19.22;49.83;96071.41;4986545;28;20467;-78
2022/06/21 07:17:47;;;;;;;6.90;2.00;;;;;;;19.00;48.65;96070.16;4988025;28;20046;-79
2022/06/21 07:20:17;;;;;;;4.05;1.50;;;;;;;19.35;47.94;96077.66;4987060;28;20038;-79
2022/06/21 07:22:43;;;;;;;2.97;1.40;;;;;;;19.39;48.08;96077.03;4989327;28;20113;-80
2022/06/21 07:25:21;;;;;;;4.95;2.05;;;;;;;19.13;47.76;96069.25;4989805;28;20477;-79
2022/06/21 07:27:53;;;;;;;5.05;1.90;;;;;;;19.35;46.38;96073.16;4988902;28;20033;-79
2022/06/21 07:30:22;;;;;;;6.22;2.08;;;;;;;19.33;47.08;96069.88;4990561;28;20030;-78
2022/06/21 07:32:55;;;;;;;3.90;2.03;;;;;;;19.62;46.65;96065.75;4987792;28;20030;-80
2022/06/21 07:35:29;;;;;;;7.57;2.28;;;;;;;19.69;46.59;96068.38;4992281;28;20034;-79
2022/06/21 07:38:18;;;;;;;4.22;1.73;;;;;;;19.85;46.27;96072.28;4994004;28;20045;-80
2022/06/21 07:40:53;;;;;;;4.38;1.48;;;;;;;20.04;45.93;96070.47;4988189;28;20053;-79
2022/06/21 07:43:43;;;;;;;4.40;1.70;;;;;;;20.33;44.46;96059.03;4992888;28;20053;-79
2022/06/21 07:46:14;;;;;;;5.60;2.20;;;;;;;20.18;46.05;96066.59;4993647;28;20029;-79
2022/06/21 07:48:50;;;;;;;4.75;1.80;;;;;;;20.53;43.70;96076.69;4993755;28;20030;-80
2022/06/21 07:51:22;;;;;;;4.82;1.70;;;;;;;20.17;43.78;96086.34;4992278;28;20030;-79
2022/06/21 07:54:06;;;;;;;5.63;1.48;;;;;;;20.22;44.22;96095.31;4988224;28;20045;-79
2022/06/21 07:56:59;;;;;;;5.70;1.90;;;;;;;21.12;43.41;96089.19;4991084;28;20038;-79
2022/06/21 07:59:36;;;;;;;5.47;1.70;;;;;;;20.55;44.43;96093.28;4992679;28;20042;-79
2022/06/21 08:08:25;;;;;;;4.13;1.45;;;;;;;21.41;43.62;96076.84;4990915;28;20050;-79
2022/06/21 08:11:00;;;;;;;8.73;1.98;;;;;;;21.46;41.89;96072.63;4975240;28;20105;-80
2022/06/21 08:13:28;;;;;;;3.38;1.30;;;;;;;21.61;41.97;96079.16;4990691;28;20044;-79
2022/06/21 08:16:10;;;;;;;4.88;1.67;;;;;;;23.29;38.15;96070.19;4989429;28;20045;-81
2022/06/21 08:18:42;;;;;;;6.13;1.63;;;;;;;22.51;41.04;96069.06;4987679;28;20400;-80
2022/06/21 08:21:14;;;;;;;3.38;1.30;;;;;;;21.65;41.41;96087.53;4990576;28;20070;-80
2022/06/21 08:23:58;;;;;;;4.70;1.67;;;;;;;21.67;41.43;96085.47;4996508;28;20030;-81
2022/06/21 08:26:34;;;;;;;4.13;2.00;;;;;;;21.59;40.89;96077.75;4990248;28;20042;-79
2022/06/21 08:29:09;;;;;;;4.93;1.42;;;;;;;20.98;43.13;96082.41;4990840;28;20114;-78
2022/06/21 08:31:47;;;;;;;6.90;2.00;;;;;;;21.70;41.62;96070.81;4987989;28;20064;-78
2022/06/21 08:34:30;;;;;;;5.78;1.60;;;;;;;22.55;40.17;96054.13;4993631;28;20326;-78
2022/06/21 08:37:08;;;;;;;6.03;1.70;;;;;;;22.52;41.01;96066.13;4998917;28;20113;-78
2022/06/21 08:40:35;;;;;;;7.82;2.00;;;;;;;21.72;41.55;96058.00;4983830;28;20100;-79
2022/06/21 08:43:29;;;;;;;5.68;1.60;;;;;;;22.16;41.93;96053.06;4988369;28;20046;-79
2022/06/21 08:46:07;;;;;;;4.18;1.70;;;;;;;22.66;40.03;96037.16;4991457;28;20058;-79
2022/06/21 08:49:04;;;;;;;9.18;2.35;;;;;;;23.34;40.01;96031.91;4990462;28;20403;-79
2022/06/21 08:51:42;;;;;;;8.07;2.10;;;;;;;22.82;39.85;96030.22;4989399;28;20204;-80
2022/06/21 08:54:08;;;;;;;5.72;2.38;;;;;;;23.46;38.72;96027.25;4995751;28;20567;-79
2022/06/21 08:56:40;;;;;;;5.03;1.48;;;;;;;22.91;40.07;96027.97;4989304;28;20026;-79
2022/06/21 08:59:33;;;;;;;3.60;1.38;;;;;;;23.80;39.25;96019.19;4988531;28;20581;-77
2022/06/21 09:02:10;;;;;;;3.10;1.55;;;;;;;23.09;39.75;96008.97;4988418;28;20042;-79
2022/06/21 09:04:52;;;;;;;5.47;1.10;;;;;;;22.69;38.43;96017.13;5000617;28;20034;-79
2022/06/21 09:07:53;;;;;;;3.43;1.30;;;;;;;23.17;39.14;96005.06;4990312;28;20073;-79
2022/06/21 09:10:54;;;;;;;3.47;1.48;;;;;;;23.35;37.08;96001.34;4999413;28;20120;-79
2022/06/21 09:13:50;;;;;;;4.93;1.50;;;;;;;22.74;38.72;96004.63;4979073;28;20034;-79
2022/06/21 09:16:55;;;;;;;4.13;1.23;;;;;;;22.24;40.26;96007.97;4992041;28;20477;-79
2022/06/21 09:19:59;;;;;;;4.47;1.38;;;;;;;23.96;37.11;96000.31;4980120;28;20622;-80
2022/06/21 09:22:58;;;;;;;4.22;1.67;;;;;;;23.23;39.14;96007.59;4983962;28;20050;-79
2022/06/21 09:25:47;;;;;;;2.47;1.30;;;;;;;22.10;39.73;96009.28;4990252;28;20101;-79
2022/06/21 09:28:43;;;;;;;5.88;1.63;;;;;;;22.03;40.86;96011.25;4991728;28;20041;-79
2022/06/21 09:31:18;;;;;;;3.33;1.30;;;;;;;22.02;43.54;96012.31;4992382;28;20579;-79
2022/06/21 09:33:54;;;;;;;6.35;1.42;;;;;;;23.29;43.01;96006.63;4990481;28;20124;-79
2022/06/21 09:36:32;;;;;;;4.95;1.38;;;;;;;23.28;41.19;95998.81;4992586;28;20042;-79
2022/06/21 09:39:13;;;;;;;3.88;1.40;;;;;;;22.71;41.94;95994.38;4990706;28;20062;-80
2022/06/21 09:42:01;;;;;;;3.95;1.70;;;;;;;22.20;43.06;95993.44;4991355;28;20048;-79
2022/06/21 09:44:35;;;;;;;6.15;1.85;;;;;;;22.90;42.70;95980.72;4991100;28;20041;-79
2022/06/21 09:47:21;;;;;;;4.43;1.60;;;;;;;22.69;43.24;95967.00;4991132;28;20420;-79
2022/06/21 09:50:12;;;;;;;6.70;2.13;;;;;;;23.29;42.37;95954.81;5006107;28;20037;-78
2022/06/21 09:52:56;;;;;;;5.43;1.88;;;;;;;22.48;42.46;95941.72;5007022;28;20038;-80
2022/06/21 09:55:51;;;;;;;6.65;1.30;;;;;;;21.94;43.62;95961.84;4996983;28;21008;-79
2022/06/21 09:58:43;;;;;;;5.95;1.88;;;;;;;23.22;42.00;95973.78;4991111;28;20038;-79
2022/06/21 10:01:17;;;;;;;4.47;1.65;;;;;;;24.63;39.33;95969.66;4987163;28;20085;-79
2022/06/21 10:03:54;;;;;;;4.07;1.30;;;;;;;24.52;39.83;95965.25;5003928;28;20101;-80
2022/06/21 10:06:44;;;;;;;8.85;1.70;;;;;;;24.48;38.82;95957.94;4986288;28;20056;-80
2022/06/21 10:09:28;;;;;;;3.22;1.63;;;;;;;25.16;37.82;95978.75;4994941;28;20037;-80
2022/06/21 10:12:19;;;;;;;4.05;1.38;;;;;;;24.09;38.74;95972.28;4989480;28;20057;-80
2022/06/21 10:14:51;;;;;;;4.72;1.70;;;;;;;24.87;37.68;95980.88;4970669;28;21062;-80
2022/06/21 10:17:52;;;;;;;4.03;1.70;;;;;;;24.03;38.91;95983.22;4986909;28;20724;-80
2022/06/21 10:20:42;;;;;;;5.47;1.73;;;;;;;22.98;40.56;95977.69;4989162;28;20038;-80
2022/06/21 10:23:41;;;;;;;4.25;1.55;;;;;;;23.54;40.57;95986.59;4973864;28;20283;-80
2022/06/21 10:26:29;;;;;;;8.50;2.25;;;;;;;23.27;39.53;95989.13;4979080;28;20164;-79
2022/06/21 10:29:01;;;;;;;7.60;2.63;;;;;;;24.04;39.06;95991.00;4979607;28;20046;-79
2022/06/21 10:31:45;;;;;;;2.90;1.20;;;;;;;24.48;37.86;95991.03;4972886;28;20053;-80
2022/06/21 10:34:30;;;;;;;4.30;1.45;;;;;;;25.89;36.19;95988.09;4971145;28;20026;-80
2022/06/21 10:36:59;;;;;;;5.72;1.48;;;;;;;25.75;34.69;95993.09;4987609;28;20038;-81
2022/06/21 10:40:00;;;;;;;4.55;1.60;;;;;;;24.37;36.59;95995.44;4986074;28;20096;-76
2022/06/21 10:42:47;;;;;;;5.90;1.50;;;;;;;24.81;34.65;96005.31;4982340;28;20031;-78
2022/06/21 10:45:35;;;;;;;3.42;1.30;;;;;;;25.38;34.53;95989.38;4984640;28;20030;-78
2022/06/21 10:48:38;;;;;;;2.80;1.52;;;;;;;25.26;34.06;95985.28;4981889;28;20369;-78
2022/06/21 10:51:07;;;;;;;;;;;;;;;26.13;33.78;95989.28;4985174;28;20096;-79
2022/06/21 10:53:48;;;;;;;4.72;1.50;;;;;;;26.27;33.25;95985.03;4984882;28;19913;-79
2022/06/21 11:02:37;;;;;;;3.97;1.45;;;;;;;27.15;32.11;95961.72;4983974;28;21237;-79
2022/06/21 11:05:17;;;;;;;7.85;1.77;;;;;;;25.41;33.68;95966.53;4971076;28;20037;-79
2022/06/21 11:07:49;;;;;;;5.28;1.98;;;;;;;26.17;34.31;95946.44;4988113;28;20023;-79
2022/06/21 11:10:44;;;;;;;4.00;1.55;;;;;;;26.14;34.51;95936.19;4989124;28;20045;-79
2022/06/21 11:13:15;;;;;;;5.22;1.60;;;;;;;26.45;33.60;95931.69;4983213;28;20100;-80
2022/06/21 11:16:09;;;;;;;3.17;1.65;;;;;;;25.95;34.28;95928.56;4986782;28;20034;-80
2022/06/21 11:18:47;;;;;;;3.72;1.65;;;;;;;25.41;34.39;95928.84;4983863;28;20408;-78
2022/06/21 11:21:29;;;;;;;4.18;1.60;;;;;;;25.66;34.46;95924.69;4983368;28;21315;-78
2022/06/21 11:24:20;;;;;;;3.33;1.52;;;;;;;25.37;35.01;95928.56;4984035;28;20112;-79
2022/06/21 11:26:51;;;;;;;2.03;1.13;;;;;;;24.96;35.70;95929.34;4978468;28;20041;-79
2022/06/21 11:29:42;;;;;;;4.65;1.55;;;;;;;25.79;34.44;95926.88;4984066;28;20043;-79
2022/06/21 11:32:46;;;;;;;5.32;1.88;;;;;;;25.09;35.62;95907.38;4986274;28;20495;-79
2022/06/21 11:35:39;;;;;;;3.97;1.52;;;;;;;25.14;36.23;95912.78;4981027;28;20104;-79
2022/06/21 11:38:42;;;;;;;5.32;1.75;;;;;;;25.57;35.54;95914.38;4983229;28;20037;-79
2022/06/21 11:44:31;;;;;;;6.22;2.33;;;;;;;25.96;35.09;95908.66;4984584;28;20034;-79
2022/06/21 11:47:03;;;;;;;4.20;1.83;;;;;;;26.68;34.84;95908.81;4988985;28;20049;-79
2022/06/21 11:49:48;;;;;;;4.20;1.83;;;;;;;26.45;35.04;95905.53;4983506;28;20049;-79
2022/06/21 11:52:55;;;;;;;5.60;1.92;;;;;;;26.56;34.93;95907.19;4987609;28;20030;-79
2022/06/21 11:55:23;;;;;;;4.97;1.67;;;;;;;27.00;34.79;95911.25;4995320;28;20100;-79
2022/06/21 11:58:13;;;;;;;4.13;1.75;;;;;;;27.69;34.54;95898.94;4986265;28;20042;-79
2022/06/21 12:01:11;;;;;;;4.60;2.22;;;;;;;26.34;37.85;95893.09;4987053;28;20106;-79
2022/06/21 12:03:50;;;;;;;6.22;2.03;;;;;;;26.56;37.43;95882.94;4988910;28;20038;-80
2022/06/21 12:06:29;;;;;;;7.45;2.17;;;;;;;26.35;38.67;95883.94;4980265;28;20042;-80
2022/06/21 12:09:19;;;;;;;3.70;1.70;;;;;;;27.85;36.02;95868.09;5006276;28;20406;-80
2022/06/21 12:12:36;;;;;;;7.50;2.25;;;;;;;26.15;39.26;95867.72;4991147;28;20042;-80
2022/06/21 12:15:16;;;;;;;4.45;2.30;;;;;;;26.78;37.62;95852.16;4988658;28;20044;-80
2022/06/21 12:18:05;;;;;;;5.93;2.40;;;;;;;27.39;38.38;95835.03;4991853;28;20133;-80
2022/06/21 12:20:48;;;;;;;5.97;2.33;;;;;;;26.99;38.92;95826.75;5003511;28;20097;-80
2022/06/21 12:23:23;;;;;;;9.88;2.35;;;;;;;26.41;39.85;95839.72;4991229;28;20030;-79
2022/06/21 12:25:50;;;;;;;4.18;2.00;;;;;;;25.05;41.38;95853.25;5001633;28;20038;-79
2022/06/21 12:28:21;;;;;;;3.95;2.40;;;;;;;25.67;40.59;95851.69;4990983;28;20117;-80
2022/06/21 12:30:48;;;;;;;7.95;2.75;;;;;;;25.57;40.93;95847.06;5005257;28;20096;-79
2022/06/21 12:33:17;;;;;;;3.38;1.70;;;;;;;26.61;39.25;95838.16;4989379;28;20060;-79
2022/06/21 12:35:55;;;;;;;6.18;2.40;;;;;;;26.22;39.52;95830.53;4991782;28;20038;-80
2022/06/21 12:38:25;;;;;;;5.45;2.17;;;;;;;26.53;38.84;95826.84;4991350;28;20040;-80
2022/06/21 12:41:09;;;;;;;5.88;2.28;;;;;;;25.92;40.68;95810.56;4983160;28;20088;-79
2022/06/21 12:43:35;;;;;;;5.75;2.03;;;;;;;25.94;40.62;95807.63;4990070;28;20065;-79